Terminal Aerodrome Forecast
Issued by NWS Blacksburg, VA

Current Version | Previous Version | Graphics & Text | Print | Product List | Glossary On
Versions: 1 2 3 4 5 6 7 8 9 10 11 12 13 14
000
FTUS41 KRNK 241726
TAFBLF
TAF
KBLF 241726Z 2418/2518 27007KT P6SM BKN020
     FM242100 28005KT P6SM SCT050
     FM250700 29004KT P6SM SCT025
     FM250900 29005KT P6SM BKN003
     FM251100 29005KT P6SM SCT003
     FM251300 30007KT P6SM SCT035=

USA.gov is the U.S. government's official web portal to all federal, state and local government web resources and services.